Date,TemperatureHighF,TemperatureAvgF,TemperatureLowF,DewpointHighF,DewpointAvgF,DewpointLowF,HumidityHigh,HumidityAvg,HumidityLow,PressureMaxIn,PressureMinIn,WindSpeedMaxMPH,WindSpeedAvgMPH,GustSpeedMaxMPH,PrecipitationSumIn
2013-5-1,80.0,66.7,54.0,60.0,52.6,44.0,72,61,47,30.21,29.86,7,3,18,0.08
2013-5-2,54.0,45.4,37.0,46.0,38.8,34.0,90,78,66,30.28,30.17,10,4,20,0.24
2013-5-3,47.0,40.6,35.0,45.0,38.5,32.0,94,93,89,30.22,29.98,9,3,16,0.58
2013-5-4,72.0,57.2,46.0,54.0,48.4,44.0,94,75,46,30.04,29.96,7,2,15,0.04
2013-5-5,73.0,60.4,47.0,51.0,46.3,42.0,89,62,38,30.06,29.99,7,2,13,0.00
2013-5-6,75.0,61.2,48.0,51.0,44.6,40.0,78,57,31,30.07,29.97,6,1,10,0.00
2013-5-7,79.0,65.4,52.0,47.0,43.0,39.0,73,47,26,30.06,29.97,4,1,0,0.00
2013-5-8,81.0,65.9,49.0,51.0,46.6,41.0,82,54,25,30.03,29.93,5,1,7,0.00
2013-5-9,68.0,58.1,46.0,59.0,51.0,44.0,94,78,61,29.95,29.88,8,2,15,0.97
2013-5-10,50.0,43.6,40.0,45.0,39.4,-99.9,94,90,81,29.98,29.86,9,3,19,1.68
2013-5-11,52.0,45.5,40.0,49.0,35.6,-99.9,96,73,40,30.01,29.76,11,4,24,0.01
2013-5-12,54.0,44.2,36.0,33.0,27.5,25.0,75,53,34,30.09,30.01,8,4,21,0.00
2013-5-13,61.0,46.9,31.0,38.0,32.8,28.0,91,62,33,30.16,29.89,8,2,11,0.00
2013-5-14,83.0,66.9,48.0,59.0,49.8,35.0,70,55,40,29.89,29.52,9,3,21,0.00
2013-5-15,77.0,70.1,61.0,62.0,48.3,41.0,66,47,28,29.84,29.53,6,2,13,0.00
2013-5-16,82.0,61.3,54.0,55.0,28.0,-99.9,77,51,35,29.97,29.83,5,1,13,0.00
2013-5-17,60.0,53.6,48.0,51.0,40.1,-99.9,93,71,37,30.11,29.96,7,2,18,0.70
2013-5-18,79.0,64.6,52.0,66.0,56.2,46.0,88,75,59,30.05,29.92,5,1,9,0.00
2013-5-19,85.0,70.5,59.0,68.0,61.9,56.0,91,76,54,29.94,29.64,14,2,24,0.04
2013-5-20,82.0,73.5,63.0,63.0,60.9,57.0,89,66,50,29.78,29.62,12,4,23,0.05
2013-5-21,78.0,69.9,63.0,65.0,60.2,56.0,87,72,53,29.68,29.59,9,4,19,0.00
2013-5-22,63.0,59.7,53.0,60.0,56.9,52.0,95,91,81,29.77,29.62,6,1,11,1.12
2013-5-23,60.0,51.8,44.0,52.0,43.9,36.0,95,77,42,30.29,29.77,9,3,16,0.92
2013-5-24,63.0,49.7,37.0,45.0,38.5,34.0,91,68,43,30.43,30.29,5,1,8,0.00
2013-5-25,63.0,53.9,45.0,42.0,38.6,35.0,75,57,41,30.38,30.28,7,1,12,0.00
2013-5-26,67.0,55.3,41.0,46.0,41.9,35.0,81,62,45,30.30,30.15,5,1,12,0.00
2013-5-27,55.0,53.1,50.0,52.0,46.8,40.0,94,80,58,30.16,29.89,7,2,20,0.03
2013-5-28,72.0,51.3,50.0,67.0,37.6,-99.9,97,81,82,29.89,29.69,4,1,14,0.56
2013-5-29,82.0,62.9,59.0,69.0,45.2,-99.9,96,70,63,29.89,29.76,9,2,19,0.04
2013-5-30,84.0,66.2,64.0,71.0,49.0,-99.9,95,71,59,29.89,29.70,15,4,27,0.67
2013-5-31,75.0,68.0,63.0,67.0,63.0,61.0,94,85,67,29.78,29.67,10,5,20,0.54